Koninklijk Nederlands Meteorologisch Instituut; Ministerie van Verkeer en Waterstaat

 
Weer
Nederlandse vliegveldverwachtingen (TAF)
Luchtvaartmeteorologische informatie voor operationeel gebruik en vluchtvoorbereiding is beschikbaar op www.luchtvaartmeteo.nl, voor toelichting zie hier.
ZCZC
FC060400 EHWO     WOENSDRECHT/WOENSDRECHT   NLD   19 m.
TAF EHWO 060427Z 0605/0617 21010KT 9999 SCT025
    BECMG 0607/0609 21015G25KT
    TEMPO 0611/0617 23025G35KT 4500 SHRA TSRA SCT020CB BKN025
    PROB30 TEMPO 0612/0614 23025G45KT 3500 TSRAGR FEW012
    BKN018CB BKN020=

ZCZC
FC060400 EHVK     VOLKEL/VOLKEL   NLD   21 m.
TAF EHVK 060445Z 0605/0617 19010KT 9999 SCT025
    BECMG 0607/0609 21015G25KT
    TEMPO 0612/0617 23025G35KT 4500 SHRA TSRA SCT020CB BKN025
    PROB30 TEMPO 0612/0615 23025G45KT 3500 TSRAGR FEW012
    BKN018CB BKN020=

ZCZC
FC060400 EHLW     LEEUWARDEN/LEEUWARDEN   NLD   1 m.
TAF EHLW 060448Z 0605/0617 20008KT 9999 FEW025
    BECMG 0606/0609 23015G30KT
    TEMPO 0608/0613 24025G40KT 4500 -SHRA SCT025CB BKN030
    PROB40 TEMPO 0610/0612 26030G45KT 2500 TSRAGR SCT010
    BKN020CB=

ZCZC
FC060400 EHGR     GILZE-RIJEN/GILZE-RIJEN   NLD   14 m.
TAF EHGR 060442Z 0605/0617 21010KT 9999 SCT025
    BECMG 0607/0609 21015G25KT
    TEMPO 0611/0617 23025G35KT 4500 SHRA TSRA SCT020CB BKN025
    PROB30 TEMPO 0612/0614 23025G45KT 3500 TSRAGR FEW012
    BKN018CB BKN020=

ZCZC
FC060500 EHKD     DE KOOY/DE KOOY   NLD   1 m.
TAF EHKD 060447Z 0605/0617 21018G30KT 9999 FEW025
    TEMPO 0607/0612 24025G40KT 4500 -SHRA SCT025CB BKN030
    PROB40 TEMPO 0609/0611 26030G45KT 2500 TSRAGR SCT010
    BKN020CB=

ZCZC
FT060500 EHAM     AMSTERDAM/SCHIPHOL   NLD   -3 m.
TAF EHAM 060440Z 0606/0712 21015KT CAVOK
    BECMG 0606/0608 21017G27KT SCT030
    TEMPO 0608/0702 6000 SHRA SCT020CB BKN030
    PROB40 TEMPO 0609/0613 23027G40KT 4000 TSRA FEW015 BKN020CB
    BECMG 0614/0617 23027G40KT
    PROB30 TEMPO 0615/0620 24032G45KT 4000 TSRA FEW015 BKN020CB
    BECMG 0621/0624 23022G35KT
    BECMG 0701/0704 25017G27KT
    PROB30 TEMPO 0702/0706 26022G33KT 6000 SHRA SCT020CB=

ZCZC
FT060500 EHBK     MAASTRICHT/MAASTRICHT-AACHEN   NLD   114 m.
TAF EHBK 060448Z 0606/0712 22016G26KT CAVOK
    TEMPO 0612/0619 23020G35KT 6000 SHRA SCT030CB BKN040
    PROB30 TEMPO 0613/0618 24026G40KT 3500 TSRAGR BKN025CB
    BKN030
    PROB40 TEMPO 0708/0712 6000 SHRA RA BKN012 SCT025CB=

ZCZC
FT060500 EHGG     GRONINGEN/EELDE   NLD   5 m.
TAF EHGG 060447Z 0606/0712 19010KT CAVOK
    BECMG 0606/0609 23020G30KT SCT030
    TEMPO 0612/0624 23020G35KT 6000 SHRA SCT030CB BKN040
    PROB40 TEMPO 0613/0618 24026G45KT 3500 TSRAGR BKN025CB
    BKN030
    TEMPO 0700/0707 6000 RA SHRA BKN012 SCT025CB
    BECMG 0706/0709 26015G25KT=

ZCZC
FT060500 EHRD     ROTTERDAM/THE HAGUE AIRPORT   NLD   -5 m.
TAF EHRD 060440Z 0606/0712 21015KT CAVOK
    BECMG 0606/0608 21017G27KT SCT030
    TEMPO 0608/0702 6000 SHRA SCT020CB BKN030
    PROB40 TEMPO 0609/0613 23027G40KT 4000 TSRA FEW015 BKN020CB
    BECMG 0614/0617 23027G40KT
    PROB30 TEMPO 0615/0620 24032G45KT 4000 TSRA FEW015 BKN020CB
    BECMG 0621/0624 23022G35KT
    BECMG 0701/0704 25017G27KT
    PROB30 TEMPO 0701/0709 26022G33KT 6000 SHRA SCT020CB=

ZCZC
FT060500 EHEH     EINDHOVEN/EINDHOVEN   NLD   22 m.
TAF EHEH 060508Z 0606/0712 19010KT 9999 SCT025
    BECMG 0607/0609 21015G25KT
    TEMPO 0612/0618 23025G35KT 4500 SHRA TSRA SCT020CB BKN025
    PROB30 TEMPO 0612/0615 23025G45KT 3500 TSRAGR FEW012
    BKN018CB BKN020
    TEMPO 0702/0712 26020G30KT 4500 SHRA FEW012 BKN020CB
    BECMG 0703/0706 23012KT=